createdAt,value
2023-02-14T00:00:22.115Z,-0.70
2023-02-14T00:02:49.256Z,-0.67
2023-02-14T00:05:16.253Z,-0.69
2023-02-14T00:07:42.728Z,-0.76
2023-02-14T00:10:09.729Z,-0.81
2023-02-14T00:12:36.259Z,-0.81
2023-02-14T00:15:21.508Z,-0.86
2023-02-14T00:17:48.646Z,-0.90
2023-02-14T00:20:15.233Z,-0.93
2023-02-14T00:22:41.689Z,-0.94
2023-02-14T00:25:08.214Z,-0.94
2023-02-14T00:27:34.720Z,-0.96
2023-02-14T00:30:02.637Z,-0.99
2023-02-14T00:32:29.700Z,-1.01
2023-02-14T00:34:56.578Z,-1.03
2023-02-14T00:37:23.521Z,-1.03
2023-02-14T00:39:50.106Z,-1.04
2023-02-14T00:42:16.827Z,-1.04
2023-02-14T00:44:43.299Z,-1.09
2023-02-14T00:47:09.778Z,-1.07
2023-02-14T00:49:36.391Z,-1.03
2023-02-14T00:52:02.868Z,-0.98
2023-02-14T00:54:29.414Z,-1.00
2023-02-14T00:56:55.851Z,-0.98
2023-02-14T00:59:22.377Z,-0.98
2023-02-14T01:01:48.863Z,-1.03
2023-02-14T01:04:15.346Z,-1.07
2023-02-14T01:06:41.813Z,-1.06
2023-02-14T01:09:08.309Z,-1.01
2023-02-14T01:11:34.934Z,-1.02
2023-02-14T01:14:01.539Z,-1.10
2023-02-14T01:16:28.505Z,-1.12
2023-02-14T01:18:55.437Z,-1.14
2023-02-14T01:21:26.422Z,-1.15
2023-02-14T01:23:54.420Z,-1.17
2023-02-14T01:26:21.901Z,-1.22
2023-02-14T01:28:48.488Z,-1.27
2023-02-14T01:31:15.099Z,-1.27
2023-02-14T01:33:42.536Z,-1.24
2023-02-14T01:36:15.286Z,-1.25
2023-02-14T01:38:44.085Z,-1.30
2023-02-14T01:41:10.781Z,-1.29
2023-02-14T01:44:09.816Z,-1.26
2023-02-14T01:46:37.715Z,-1.26
2023-02-14T01:49:04.205Z,-1.26
2023-02-14T01:51:32.508Z,-1.30
2023-02-14T01:53:59.592Z,-1.34
2023-02-14T01:56:30.188Z,-1.43
2023-02-14T01:59:00.202Z,-1.54
2023-02-14T02:01:27.508Z,-1.54
2023-02-14T02:03:55.784Z,-1.55
2023-02-14T02:06:34.233Z,-1.58
2023-02-14T02:09:16.605Z,-1.58
2023-02-14T02:11:43.500Z,-1.62
2023-02-14T02:14:14.996Z,-1.63
2023-02-14T02:16:41.561Z,-1.63
2023-02-14T02:19:11.092Z,-1.62
2023-02-14T02:21:37.599Z,-1.63
2023-02-14T02:24:09.825Z,-1.63
2023-02-14T02:26:51.609Z,-1.62
2023-02-14T02:29:35.720Z,-1.65
2023-02-14T02:32:20.717Z,-1.64
2023-02-14T02:34:56.284Z,-1.63
2023-02-14T02:37:34.972Z,-1.58
2023-02-14T02:40:22.350Z,-1.60
2023-02-14T02:43:15.442Z,-1.58
2023-02-14T02:46:01.922Z,-1.49
2023-02-14T02:48:34.600Z,-1.43
2023-02-14T02:51:23.079Z,-1.41
2023-02-14T02:53:49.562Z,-1.39
2023-02-14T02:56:41.238Z,-1.36
2023-02-14T02:59:18.611Z,-1.32
2023-02-14T03:01:50.711Z,-1.29
2023-02-14T03:04:37.177Z,-1.28
2023-02-14T03:07:23.842Z,-1.28
2023-02-14T03:09:50.949Z,-1.24
2023-02-14T03:12:29.000Z,-1.20
2023-02-14T03:15:12.180Z,-1.17
2023-02-14T03:17:56.790Z,-1.21
2023-02-14T03:20:24.584Z,-1.20
2023-02-14T03:22:51.601Z,-1.19
2023-02-14T03:25:18.095Z,-1.18
2023-02-14T03:27:52.329Z,-1.17
2023-02-14T03:30:42.294Z,-1.16
2023-02-14T03:33:15.008Z,-1.14
2023-02-14T03:36:03.956Z,-1.13
2023-02-14T03:38:30.400Z,-1.10
2023-02-14T03:40:59.614Z,-1.06
2023-02-14T03:43:31.902Z,-1.08
2023-02-14T03:46:03.719Z,-1.10
2023-02-14T03:48:30.901Z,-1.09
2023-02-14T03:50:59.574Z,-1.07
2023-02-14T03:53:28.368Z,-1.08
2023-02-14T03:56:08.934Z,-1.11
2023-02-14T03:58:38.138Z,-1.11
2023-02-14T04:01:09.457Z,-1.12
2023-02-14T04:03:39.368Z,-1.10
2023-02-14T04:06:06.214Z,-1.04
2023-02-14T04:08:32.713Z,-1.01
2023-02-14T04:11:01.984Z,-1.04
2023-02-14T04:13:28.997Z,-1.01
2023-02-14T04:15:55.593Z,-1.01
2023-02-14T04:18:40.750Z,-1.00
2023-02-14T04:21:07.198Z,-1.03
2023-02-14T04:23:33.710Z,-1.08
2023-02-14T04:26:00.262Z,-1.08
2023-02-14T04:28:26.727Z,-1.03
2023-02-14T04:30:53.266Z,-0.97
2023-02-14T04:33:19.884Z,-0.94
2023-02-14T04:35:46.421Z,-0.95
2023-02-14T04:38:12.910Z,-0.94
2023-02-14T04:40:39.442Z,-0.91
2023-02-14T04:43:07.544Z,-0.89
2023-02-14T04:45:34.246Z,-0.92
2023-02-14T04:48:00.769Z,-0.94
2023-02-14T04:50:27.296Z,-0.93
2023-02-14T04:52:53.856Z,-0.97
2023-02-14T04:55:20.351Z,-0.98
2023-02-14T04:57:46.907Z,-1.05
2023-02-14T05:00:13.787Z,-1.13
2023-02-14T05:02:40.268Z,-1.14
2023-02-14T05:05:06.948Z,-1.16
2023-02-14T05:07:33.755Z,-1.16
2023-02-14T05:10:00.271Z,-1.45
2023-02-14T05:12:26.786Z,-1.34
2023-02-14T05:14:53.271Z,-1.30
2023-02-14T05:17:19.758Z,-1.30
2023-02-14T05:19:46.199Z,-1.35
2023-02-14T05:22:12.675Z,-1.37
2023-02-14T05:24:39.170Z,-1.36
2023-02-14T05:27:05.737Z,-1.41
2023-02-14T05:29:32.329Z,-1.37
2023-02-14T05:31:58.968Z,-1.35
2023-02-14T05:34:25.554Z,-1.32
2023-02-14T05:36:52.085Z,-1.27
2023-02-14T05:39:18.598Z,-1.24
2023-02-14T05:41:45.134Z,-1.24
2023-02-14T05:44:11.602Z,-1.23
2023-02-14T05:46:38.124Z,-1.23
2023-02-14T05:49:04.598Z,-1.24
2023-02-14T05:51:31.240Z,-1.23
2023-02-14T05:53:59.991Z,-1.28
2023-02-14T05:56:26.584Z,-1.27
2023-02-14T05:58:53.032Z,-1.25
2023-02-14T06:01:19.539Z,-1.23
2023-02-14T06:03:46.009Z,-1.25
2023-02-14T06:06:12.473Z,-1.25
2023-02-14T06:08:38.940Z,-1.26
2023-02-14T06:11:05.404Z,-1.26
2023-02-14T06:13:31.874Z,-1.27
2023-02-14T06:15:58.316Z,-1.27
2023-02-14T06:18:28.142Z,-1.27
2023-02-14T06:20:55.536Z,-1.27
2023-02-14T06:23:22.052Z,-1.27
2023-02-14T06:25:48.518Z,-1.22
2023-02-14T06:28:15.036Z,-1.17
2023-02-14T06:30:41.615Z,-1.17
2023-02-14T06:33:08.214Z,-1.17
2023-02-14T06:35:34.680Z,-1.18
2023-02-14T06:38:01.141Z,-1.18
2023-02-14T06:40:27.588Z,-1.21
2023-02-14T06:42:54.132Z,-1.23
2023-02-14T06:45:20.585Z,-1.21
2023-02-14T06:47:47.381Z,-1.18
2023-02-14T06:50:13.920Z,-1.18
2023-02-14T06:52:42.121Z,-1.21
2023-02-14T06:55:08.663Z,-1.20
2023-02-14T06:57:35.193Z,-1.24
2023-02-14T07:00:01.725Z,-1.23
2023-02-14T07:02:28.353Z,-1.22
2023-02-14T07:04:54.868Z,-1.18
2023-02-14T07:07:21.333Z,-1.17
2023-02-14T07:09:47.784Z,-1.12
2023-02-14T07:12:14.281Z,-1.11
2023-02-14T07:14:40.732Z,-1.09
2023-02-14T07:17:07.278Z,-1.08
2023-02-14T07:19:33.787Z,-1.08
2023-02-14T07:22:00.889Z,-1.08
2023-02-14T07:24:27.407Z,-1.02
2023-02-14T07:26:53.878Z,-1.00
2023-02-14T07:29:20.550Z,-0.99
2023-02-14T07:31:47.167Z,-0.96
2023-02-14T07:34:13.795Z,-0.95
2023-02-14T07:36:40.375Z,-0.90
2023-02-14T07:39:06.949Z,-0.90
2023-02-14T07:41:33.552Z,-0.91
2023-02-14T07:44:00.063Z,-0.87
2023-02-14T07:46:26.721Z,-0.83
2023-02-14T07:48:53.439Z,-0.76
2023-02-14T07:51:19.980Z,-0.72
2023-02-14T07:53:46.670Z,-0.66
2023-02-14T07:56:13.133Z,-0.63
2023-02-14T07:58:39.677Z,-0.61
2023-02-14T08:01:06.218Z,-0.60
2023-02-14T08:03:32.716Z,-0.52
2023-02-14T08:05:59.156Z,-0.52
2023-02-14T08:08:27.193Z,-0.45
2023-02-14T08:10:53.803Z,-0.39
2023-02-14T08:13:20.362Z,-0.35
2023-02-14T08:16:05.124Z,-0.30
2023-02-14T08:18:41.511Z,-0.23
2023-02-14T08:21:09.237Z,-0.18
2023-02-14T08:23:36.687Z,-0.21
2023-02-14T08:26:03.764Z,-0.19
2023-02-14T08:28:32.333Z,-0.13
2023-02-14T08:30:59.170Z,-0.07
2023-02-14T08:33:25.963Z,0.02
2023-02-14T08:35:52.509Z,0.07
2023-02-14T08:38:19.469Z,0.10
2023-02-14T08:40:46.306Z,0.16
2023-02-14T08:43:12.901Z,0.25
2023-02-14T08:45:39.452Z,0.32
2023-02-14T08:48:07.426Z,0.37
2023-02-14T08:50:34.469Z,0.47
2023-02-14T08:53:01.226Z,0.51
2023-02-14T08:55:27.907Z,0.58
2023-02-14T08:57:58.181Z,0.58
2023-02-14T09:00:24.843Z,0.61
2023-02-14T09:02:52.628Z,0.63
2023-02-14T09:05:19.934Z,0.65
2023-02-14T09:07:46.428Z,0.68
2023-02-14T09:10:13.014Z,0.68
2023-02-14T09:12:40.802Z,0.74
2023-02-14T09:15:08.255Z,0.78
2023-02-14T09:17:34.966Z,0.84
2023-02-14T09:20:02.020Z,0.96
2023-02-14T09:22:28.544Z,1.03
2023-02-14T09:24:55.179Z,1.08
2023-02-14T09:27:21.650Z,1.16
2023-02-14T09:29:48.210Z,1.21
2023-02-14T09:32:15.730Z,1.26
2023-02-14T09:34:43.794Z,1.35
2023-02-14T09:37:10.970Z,1.47
2023-02-14T09:39:37.753Z,1.52
2023-02-14T09:42:10.109Z,1.46
2023-02-14T09:44:39.715Z,1.41
2023-02-14T09:47:26.994Z,1.50
2023-02-14T09:49:54.456Z,1.42
2023-02-14T09:52:22.587Z,1.43
2023-02-14T09:54:54.768Z,1.59
2023-02-14T09:57:25.401Z,1.71
2023-02-14T09:59:58.590Z,1.75
2023-02-14T10:02:39.186Z,1.75
2023-02-14T10:05:22.086Z,1.61
2023-02-14T10:07:54.621Z,1.81
2023-02-14T10:10:24.204Z,1.72
2023-02-14T10:12:53.738Z,1.99
2023-02-14T10:15:20.384Z,2.14
2023-02-14T10:17:49.933Z,2.30
2023-02-14T10:20:22.538Z,2.43
2023-02-14T10:22:53.404Z,2.59
2023-02-14T10:25:26.289Z,2.67
2023-02-14T10:27:55.411Z,2.78
2023-02-14T10:30:22.569Z,2.83
2023-02-14T10:32:50.356Z,2.73
2023-02-14T10:35:16.858Z,2.74
2023-02-14T10:37:53.257Z,2.90
2023-02-14T10:40:31.691Z,2.82
2023-02-14T10:43:18.950Z,3.00
2023-02-14T10:46:02.682Z,3.06
2023-02-14T10:48:41.101Z,3.14
2023-02-14T10:51:20.574Z,3.40
2023-02-14T10:53:59.179Z,3.52
2023-02-14T10:56:37.530Z,3.57
2023-02-14T10:59:12.115Z,3.67
2023-02-14T11:01:38.682Z,3.72
2023-02-14T11:04:08.604Z,3.72
2023-02-14T11:06:35.180Z,3.70
2023-02-14T11:09:01.715Z,3.48
2023-02-14T11:11:35.239Z,3.39
2023-02-14T11:16:51.719Z,3.60
2023-02-14T11:19:21.224Z,3.67
2023-02-14T11:21:48.412Z,3.83
2023-02-14T11:24:30.258Z,3.89
2023-02-14T11:27:11.813Z,3.87
2023-02-14T11:29:41.015Z,3.98
2023-02-14T11:32:20.388Z,3.99
2023-02-14T11:34:59.762Z,4.10
2023-02-14T11:37:31.688Z,4.04
2023-02-14T11:39:59.951Z,4.01
2023-02-14T11:42:44.391Z,4.05
2023-02-14T11:45:34.271Z,4.15
2023-02-14T11:48:10.173Z,4.18
2023-02-14T11:50:38.407Z,4.25
2023-02-14T11:53:05.008Z,4.30
2023-02-14T11:55:33.758Z,4.45
2023-02-14T11:58:01.843Z,4.49
2023-02-14T12:00:31.217Z,4.56
2023-02-14T12:02:58.968Z,4.63
2023-02-14T12:05:28.325Z,4.71
2023-02-14T12:07:56.908Z,4.81
2023-02-14T12:10:25.159Z,4.94
2023-02-14T12:12:56.308Z,4.94
2023-02-14T12:15:25.263Z,5.07
2023-02-14T12:17:53.491Z,5.22
2023-02-14T12:20:26.710Z,5.33
2023-02-14T12:23:01.484Z,5.47
2023-02-14T12:25:37.109Z,5.60
2023-02-14T12:28:07.537Z,5.68
2023-02-14T12:30:35.260Z,5.83
2023-02-14T12:33:01.875Z,5.94
2023-02-14T12:35:47.129Z,6.01
2023-02-14T12:38:16.467Z,6.18
2023-02-14T12:40:57.247Z,6.33
2023-02-14T12:43:30.019Z,6.51
2023-02-14T12:46:08.498Z,6.62
2023-02-14T12:48:47.352Z,6.83
2023-02-14T12:51:13.846Z,6.93
2023-02-14T12:53:49.228Z,7.10
2023-02-14T12:56:16.222Z,7.34
2023-02-14T12:58:42.696Z,7.50
2023-02-14T13:01:13.243Z,7.70
2023-02-14T13:03:50.544Z,7.81
2023-02-14T13:06:17.028Z,7.89
2023-02-14T13:09:01.519Z,8.04
2023-02-14T13:11:34.119Z,8.17
2023-02-14T13:14:15.943Z,8.09
2023-02-14T13:16:49.379Z,8.48
2023-02-14T13:19:15.842Z,8.64
2023-02-14T13:21:43.180Z,8.76
2023-02-14T13:24:18.435Z,9.04
2023-02-14T13:26:48.636Z,9.41
2023-02-14T13:29:20.588Z,9.74
2023-02-14T13:31:47.990Z,10.08
2023-02-14T13:34:24.444Z,10.26
2023-02-14T13:36:51.466Z,10.55
2023-02-14T13:39:27.232Z,10.80
2023-02-14T13:41:53.988Z,10.94
2023-02-14T13:44:39.024Z,10.90
2023-02-14T13:47:15.686Z,11.19
2023-02-14T13:49:48.576Z,11.20
2023-02-14T13:52:35.013Z,11.62
2023-02-14T13:55:03.264Z,11.85
2023-02-14T13:57:36.394Z,11.84
2023-02-14T14:00:18.997Z,11.60
2023-02-14T14:02:45.490Z,11.36
2023-02-14T14:05:30.318Z,11.59
2023-02-14T14:08:15.607Z,11.55
2023-02-14T14:10:46.833Z,11.50
2023-02-14T14:13:32.005Z,11.92
2023-02-14T14:16:17.119Z,11.81
2023-02-14T14:18:43.801Z,11.96
2023-02-14T14:21:30.488Z,12.16
2023-02-14T14:24:20.398Z,12.33
2023-02-14T14:26:50.205Z,12.55
2023-02-14T14:29:16.642Z,12.59
2023-02-14T14:31:43.316Z,12.77
2023-02-14T14:34:15.658Z,12.66
2023-02-14T14:36:42.153Z,12.82
2023-02-14T14:39:09.888Z,12.95
2023-02-14T14:41:36.573Z,12.66
2023-02-14T14:44:04.702Z,12.61
2023-02-14T14:46:34.414Z,12.39
2023-02-14T14:49:02.402Z,12.08
2023-02-14T14:51:30.580Z,11.84
2023-02-14T14:54:01.345Z,11.65
2023-02-14T14:56:31.048Z,11.68
2023-02-14T14:58:58.247Z,11.49
2023-02-14T15:01:29.381Z,11.61
2023-02-14T15:04:07.337Z,11.71
2023-02-14T15:06:33.806Z,11.35
2023-02-14T15:09:11.182Z,11.08
2023-02-14T15:11:57.642Z,10.93
2023-02-14T15:14:24.681Z,10.71
2023-02-14T15:16:53.799Z,10.86
2023-02-14T15:19:23.361Z,10.77
2023-02-14T15:21:50.363Z,10.78
2023-02-14T15:24:17.894Z,10.74
2023-02-14T15:26:46.141Z,10.69
2023-02-14T15:29:20.869Z,10.51
2023-02-14T15:31:47.648Z,10.65
2023-02-14T15:34:14.712Z,10.41
2023-02-14T15:36:42.005Z,10.40
2023-02-14T15:39:09.741Z,10.41
2023-02-14T15:41:37.284Z,10.24
2023-02-14T15:44:04.050Z,10.32
2023-02-14T15:46:38.616Z,10.24
2023-02-14T15:49:08.133Z,10.16
2023-02-14T15:51:36.484Z,10.17
2023-02-14T15:54:05.599Z,9.90
2023-02-14T15:56:36.388Z,9.82
2023-02-14T15:59:04.900Z,9.57
2023-02-14T16:01:33.220Z,9.50
2023-02-14T16:04:01.865Z,9.28
2023-02-14T16:06:34.174Z,9.14
2023-02-14T16:09:01.066Z,9.02
2023-02-14T16:11:28.994Z,8.88
2023-02-14T16:13:55.673Z,8.80
2023-02-14T16:16:22.207Z,8.71
2023-02-14T16:18:53.040Z,8.57
2023-02-14T16:21:19.576Z,8.39
2023-02-14T16:23:47.417Z,8.20
2023-02-14T16:26:14.800Z,8.02
2023-02-14T16:28:43.283Z,7.88
2023-02-14T16:31:15.717Z,7.82
2023-02-14T16:33:42.297Z,7.70
2023-02-14T16:37:57.861Z,7.64
2023-02-14T16:40:27.852Z,7.55
2023-02-14T16:42:55.152Z,7.27
2023-02-14T16:45:22.033Z,7.12
2023-02-14T16:47:49.323Z,7.07
2023-02-14T16:50:16.621Z,6.95
2023-02-14T16:52:47.708Z,6.79
2023-02-14T16:55:16.710Z,6.59
2023-02-14T16:57:46.266Z,6.38
2023-02-14T17:00:13.775Z,6.23
2023-02-14T17:02:42.582Z,6.06
2023-02-14T17:05:11.020Z,5.99
2023-02-14T17:07:39.515Z,5.89
2023-02-14T17:10:10.553Z,5.83
2023-02-14T17:12:44.159Z,5.60
2023-02-14T17:15:16.210Z,5.50
2023-02-14T17:17:44.652Z,5.46
2023-02-14T17:20:13.082Z,5.36
2023-02-14T17:22:42.573Z,5.23
2023-02-14T17:25:09.699Z,4.93
2023-02-14T17:27:36.477Z,4.82
2023-02-14T17:30:04.529Z,4.80
2023-02-14T17:32:31.360Z,4.64
2023-02-14T17:34:58.124Z,4.62
2023-02-14T17:37:24.901Z,4.59
2023-02-14T17:39:53.043Z,4.62
2023-02-14T17:42:19.823Z,4.49
2023-02-14T17:44:46.499Z,4.45
2023-02-14T17:47:14.882Z,4.39
2023-02-14T17:49:41.826Z,4.25
2023-02-14T17:52:08.560Z,4.16
2023-02-14T17:54:38.707Z,4.05
2023-02-14T17:57:05.666Z,4.01
2023-02-14T17:59:32.923Z,3.92
2023-02-14T18:01:59.994Z,3.74
2023-02-14T18:04:30.055Z,3.58
2023-02-14T18:06:57.106Z,3.49
2023-02-14T18:09:25.815Z,3.35
2023-02-14T18:11:52.789Z,3.20
2023-02-14T18:14:19.792Z,3.14
2023-02-14T18:16:46.482Z,3.05
2023-02-14T18:19:15.967Z,2.90
2023-02-14T18:21:43.990Z,2.71
2023-02-14T18:24:11.478Z,2.57
2023-02-14T18:26:40.037Z,2.55
2023-02-14T18:29:07.506Z,2.49
2023-02-14T18:31:35.410Z,2.36
2023-02-14T18:34:02.827Z,2.27
2023-02-14T18:36:31.823Z,2.15
2023-02-14T18:38:59.356Z,2.02
2023-02-14T18:41:27.151Z,1.91
2023-02-14T18:43:54.280Z,1.72
2023-02-14T18:46:33.384Z,1.59
2023-02-14T18:49:00.171Z,1.62
2023-02-14T18:51:32.386Z,1.56
2023-02-14T18:54:01.026Z,1.48
2023-02-14T18:56:31.194Z,1.43
2023-02-14T18:59:04.036Z,1.40
2023-02-14T19:01:34.547Z,1.27
2023-02-14T19:04:01.330Z,1.33
2023-02-14T19:06:31.039Z,1.13
2023-02-14T19:08:58.166Z,1.17
2023-02-14T19:11:28.218Z,1.23
2023-02-14T19:13:57.061Z,1.20
2023-02-14T19:16:26.648Z,0.94
2023-02-14T19:18:54.135Z,0.82
2023-02-14T19:21:23.538Z,0.71
2023-02-14T19:23:51.920Z,0.62
2023-02-14T19:26:21.432Z,0.55
2023-02-14T19:28:50.439Z,0.60
2023-02-14T19:31:17.396Z,0.63
2023-02-14T19:33:46.178Z,0.66
2023-02-14T19:36:16.257Z,0.68
2023-02-14T19:38:45.255Z,0.49
2023-02-14T19:41:16.723Z,0.57
2023-02-14T19:43:45.962Z,0.59
2023-02-14T19:46:13.923Z,0.63
2023-02-14T19:48:41.032Z,0.67
2023-02-14T19:51:09.204Z,0.71
2023-02-14T19:53:36.898Z,0.69
2023-02-14T19:56:03.739Z,0.67
2023-02-14T19:58:30.450Z,0.73
2023-02-14T20:00:59.603Z,0.76
2023-02-14T20:03:27.149Z,0.77
2023-02-14T20:05:53.835Z,0.78
2023-02-14T20:08:20.541Z,0.75
2023-02-14T20:10:47.424Z,0.70
2023-02-14T20:13:14.163Z,0.77
2023-02-14T20:15:40.812Z,0.80
2023-02-14T20:18:07.958Z,0.82
2023-02-14T20:20:54.588Z,0.82
2023-02-14T20:23:21.315Z,0.92
2023-02-14T20:25:47.943Z,0.90
2023-02-14T20:28:14.672Z,0.93
2023-02-14T20:30:41.443Z,0.88
2023-02-14T20:33:08.174Z,0.93
2023-02-14T20:35:39.527Z,0.90
2023-02-14T20:38:09.557Z,0.90
2023-02-14T20:40:40.168Z,0.90
2023-02-14T20:43:06.966Z,0.93
2023-02-14T20:45:33.747Z,0.95
2023-02-14T20:48:04.188Z,0.96
2023-02-14T20:50:31.625Z,0.99
2023-02-14T20:52:58.407Z,0.92
2023-02-14T20:55:27.190Z,0.94
2023-02-14T20:57:54.400Z,0.91
2023-02-14T21:00:25.669Z,0.88
2023-02-14T21:02:52.559Z,0.89
2023-02-14T21:05:21.034Z,0.89
2023-02-14T21:07:47.748Z,0.85
2023-02-14T21:10:15.402Z,0.86
2023-02-14T21:12:42.138Z,0.87
2023-02-14T21:15:10.317Z,0.86
2023-02-14T21:17:43.257Z,0.84
2023-02-14T21:20:10.826Z,0.85
2023-02-14T21:22:38.369Z,0.84
2023-02-14T21:25:05.861Z,0.85
2023-02-14T21:27:32.516Z,0.79
2023-02-14T21:29:59.535Z,0.80
2023-02-14T21:32:28.566Z,0.74
2023-02-14T21:34:55.824Z,0.75
2023-02-14T21:37:22.550Z,0.71
2023-02-14T21:39:50.316Z,0.70
2023-02-14T21:42:18.536Z,0.71
2023-02-14T21:45:04.019Z,0.73
2023-02-14T21:47:30.780Z,0.69
2023-02-14T21:50:16.452Z,0.73
2023-02-14T21:52:43.175Z,0.67
2023-02-14T21:55:10.023Z,0.58
2023-02-14T21:57:36.759Z,0.53
2023-02-14T22:00:04.571Z,0.57
2023-02-14T22:02:31.546Z,0.51
2023-02-14T22:04:58.932Z,0.48
2023-02-14T22:07:28.879Z,0.46
2023-02-14T22:09:55.505Z,0.48
2023-02-14T22:12:22.116Z,0.44
2023-02-14T22:14:48.766Z,0.37
2023-02-14T22:17:15.390Z,0.27
2023-02-14T22:19:42.061Z,0.25
2023-02-14T22:22:08.749Z,0.28
2023-02-14T22:24:35.356Z,0.24
2023-02-14T22:27:02.041Z,0.23
2023-02-14T22:29:29.130Z,0.19
2023-02-14T22:31:56.080Z,0.15
2023-02-14T22:34:22.687Z,0.11
2023-02-14T22:36:49.731Z,0.01
2023-02-14T22:39:17.181Z,0.03
2023-02-14T22:41:44.222Z,-0.05
2023-02-14T22:44:10.952Z,-0.01
2023-02-14T22:46:37.924Z,-0.08
2023-02-14T22:49:06.184Z,-0.12
2023-02-14T22:51:42.990Z,-0.19
2023-02-14T22:54:12.501Z,-0.27
2023-02-14T22:56:48.226Z,-0.31
2023-02-14T22:59:21.754Z,-0.40
2023-02-14T23:01:49.803Z,-0.43
2023-02-14T23:04:18.157Z,-0.43
2023-02-14T23:06:45.170Z,-0.42
2023-02-14T23:09:12.931Z,-0.45
2023-02-14T23:11:41.129Z,-0.45
2023-02-14T23:14:26.233Z,-0.49
2023-02-14T23:17:11.514Z,-0.56
2023-02-14T23:19:56.703Z,-0.71
2023-02-14T23:22:29.122Z,-0.71
2023-02-14T23:24:58.671Z,-0.64
2023-02-14T23:27:30.724Z,-0.63
2023-02-14T23:29:57.634Z,-0.63
2023-02-14T23:32:24.417Z,-0.71
2023-02-14T23:34:51.141Z,-0.73
2023-02-14T23:37:17.943Z,-0.72
2023-02-14T23:39:44.623Z,-0.76
2023-02-14T23:42:13.911Z,-0.77
2023-02-14T23:44:42.126Z,-0.75
2023-02-14T23:47:10.160Z,-0.76
2023-02-14T23:49:39.039Z,-0.78
2023-02-14T23:52:11.294Z,-0.76
2023-02-14T23:54:38.342Z,-0.77
2023-02-14T23:57:06.265Z,-0.86
2023-02-14T23:59:33.025Z,-0.82
